createdAt,value
2022-08-04T00:01:07.409Z,2.40
2022-08-04T00:06:21.693Z,2.50
2022-08-04T00:11:23.735Z,2.20
2022-08-04T00:16:32.693Z,2.40
2022-08-04T00:21:40.939Z,2.43
2022-08-04T00:26:43.111Z,2.53
2022-08-04T00:31:57.102Z,2.50
2022-08-04T00:36:58.970Z,2.35
2022-08-04T00:42:18.993Z,2.30
2022-08-04T00:47:23.319Z,2.55
2022-08-04T00:52:33.937Z,2.63
2022-08-04T00:57:47.288Z,2.87
2022-08-04T01:02:59.297Z,2.40
2022-08-04T01:08:19.445Z,2.50
2022-08-04T01:13:20.713Z,2.53
2022-08-04T01:18:27.245Z,2.33
2022-08-04T01:23:50.640Z,2.90
2022-08-04T01:29:01.197Z,2.55
2022-08-04T01:34:05.539Z,2.53
2022-08-04T01:39:25.608Z,2.53
2022-08-04T01:44:27.539Z,2.80
2022-08-04T01:49:40.051Z,2.63
2022-08-04T01:54:42.677Z,2.63
2022-08-04T01:59:45.361Z,2.30
2022-08-04T02:04:46.822Z,2.87
2022-08-04T02:10:07.933Z,2.60
2022-08-04T02:15:21.177Z,2.58
2022-08-04T02:20:23.865Z,2.85
2022-08-04T02:25:26.661Z,2.53
2022-08-04T02:30:30.759Z,2.40
2022-08-04T02:35:35.597Z,2.47
2022-08-04T02:40:37.549Z,2.40
2022-08-04T02:45:41.431Z,2.47
2022-08-04T02:50:43.435Z,2.50
2022-08-04T02:55:51.059Z,3.13
2022-08-04T03:00:53.631Z,2.80
2022-08-04T03:06:13.276Z,2.97
2022-08-04T03:11:14.540Z,2.75
2022-08-04T03:16:29.999Z,3.00
2022-08-04T03:21:50.948Z,2.85
2022-08-04T03:27:11.334Z,2.60
2022-08-04T03:32:29.300Z,2.20
2022-08-04T03:37:38.842Z,2.60
2022-08-04T03:42:58.740Z,2.78
2022-08-04T03:47:59.980Z,2.63
2022-08-04T03:53:36.788Z,2.63
2022-08-04T03:58:53.438Z,2.88
2022-08-04T04:04:20.119Z,2.60
2022-08-04T04:09:58.123Z,2.50
2022-08-04T04:15:12.242Z,3.00
2022-08-04T04:20:32.453Z,2.47
2022-08-04T04:25:46.044Z,2.70
2022-08-04T04:30:47.293Z,2.65
2022-08-04T04:36:07.336Z,2.42
2022-08-04T04:41:17.746Z,2.60
2022-08-04T04:46:18.978Z,2.70
2022-08-04T04:51:26.929Z,2.80
2022-08-04T04:56:28.681Z,2.97
2022-08-04T05:01:40.058Z,2.77
2022-08-04T05:07:00.450Z,2.85
2022-08-04T05:14:26.370Z,2.90
2022-08-04T05:17:42.987Z,2.57
2022-08-04T05:22:59.425Z,2.60
2022-08-04T05:28:10.164Z,3.00
2022-08-04T05:33:13.711Z,2.63
2022-08-04T05:38:20.149Z,2.63
2022-08-04T05:43:23.414Z,3.00
2022-08-04T05:48:25.411Z,2.65
2022-08-04T05:53:27.561Z,2.83
2022-08-04T05:58:30.369Z,2.85
2022-08-04T06:03:32.496Z,3.00
2022-08-04T06:08:33.885Z,2.70
2022-08-04T06:13:50.961Z,2.70
2022-08-04T06:20:02.135Z,2.70
2022-08-04T06:24:17.519Z,2.90
2022-08-04T06:29:24.820Z,3.10
2022-08-04T06:34:26.529Z,2.70
2022-08-04T06:39:27.925Z,3.00
2022-08-04T06:44:29.951Z,2.97
2022-08-04T06:49:31.695Z,2.90
2022-08-04T06:54:53.561Z,3.22
2022-08-04T07:00:12.171Z,3.50
2022-08-04T07:05:13.685Z,3.10
2022-08-04T07:10:21.646Z,3.22
2022-08-04T07:15:24.540Z,3.50
2022-08-04T07:20:34.672Z,3.83
2022-08-04T07:25:58.880Z,3.78
2022-08-04T07:30:58.778Z,3.88
2022-08-04T07:36:05.399Z,4.07
2022-08-04T07:46:33.717Z,4.90
2022-08-04T07:51:36.397Z,4.30
2022-08-04T07:56:41.301Z,3.78
2022-08-04T08:01:42.864Z,5.03
2022-08-04T08:06:45.747Z,5.10
2022-08-04T08:12:36.467Z,4.67
2022-08-04T08:17:09.898Z,4.82
2022-08-04T08:22:11.900Z,5.13
2022-08-04T08:27:13.295Z,4.53
2022-08-04T08:32:15.228Z,5.13
2022-08-04T08:37:25.489Z,4.82
2022-08-04T08:42:39.211Z,4.93
2022-08-04T08:48:06.349Z,4.80
2022-08-04T08:53:33.306Z,5.05
2022-08-04T08:58:43.799Z,4.83
2022-08-04T09:04:00.609Z,4.63
2022-08-04T09:09:37.607Z,4.60
2022-08-04T09:14:38.866Z,4.53
2022-08-04T09:19:45.776Z,4.30
2022-08-04T09:25:02.803Z,4.75
2022-08-04T09:30:08.288Z,3.90
2022-08-04T09:35:28.134Z,4.10
2022-08-04T09:40:52.400Z,3.92
2022-08-04T09:46:00.796Z,4.43
2022-08-04T09:51:06.223Z,3.73
2022-08-04T09:56:17.381Z,4.10
2022-08-04T10:01:23.786Z,3.80
2022-08-04T10:06:44.330Z,3.70
2022-08-04T10:11:56.482Z,3.73
2022-08-04T10:17:01.178Z,3.55
2022-08-04T10:22:29.479Z,3.63
2022-08-04T10:27:41.337Z,4.17
2022-08-04T10:32:49.224Z,3.70
2022-08-04T10:38:03.427Z,3.55
2022-08-04T10:43:07.738Z,3.63
2022-08-04T10:48:34.623Z,3.63
2022-08-04T10:53:37.949Z,3.25
2022-08-04T10:58:46.922Z,3.45
2022-08-04T11:03:54.994Z,3.50
2022-08-04T11:08:56.918Z,3.35
2022-08-04T11:14:06.955Z,3.20
2022-08-04T11:19:08.777Z,2.90
2022-08-04T11:24:19.179Z,3.10
2022-08-04T11:29:29.345Z,2.88
2022-08-04T11:34:30.793Z,3.30
2022-08-04T11:39:32.933Z,2.97
2022-08-04T11:44:42.196Z,2.92
2022-08-04T11:49:56.873Z,3.08
2022-08-04T11:55:02.398Z,2.70
2022-08-04T12:00:10.067Z,2.80
2022-08-04T12:05:35.700Z,2.70
2022-08-04T12:10:41.168Z,2.70
2022-08-04T12:16:03.941Z,2.60
2022-08-04T12:21:07.479Z,2.53
2022-08-04T12:26:23.254Z,3.00
2022-08-04T12:31:34.219Z,2.90
2022-08-04T12:36:55.797Z,2.25
2022-08-04T12:42:07.135Z,2.67
2022-08-04T12:47:26.518Z,2.77
2022-08-04T12:57:58.518Z,2.72
2022-08-04T13:03:06.250Z,2.53
2022-08-04T13:08:12.419Z,2.60
2022-08-04T13:13:15.803Z,2.45
2022-08-04T13:18:17.110Z,2.53
2022-08-04T13:23:21.573Z,2.57
2022-08-04T13:28:24.670Z,2.42
2022-08-04T13:33:34.659Z,2.72
2022-08-04T13:38:38.324Z,2.50
2022-08-04T13:44:16.403Z,2.67
2022-08-04T13:54:42.901Z,2.83
2022-08-04T13:59:47.533Z,2.80
2022-08-04T14:04:51.498Z,2.70
2022-08-04T14:10:04.037Z,2.73
2022-08-04T14:15:05.928Z,2.73
2022-08-04T14:20:07.493Z,2.80
2022-08-04T14:25:15.811Z,2.75
2022-08-04T14:30:21.110Z,2.50
2022-08-04T14:35:22.586Z,3.03
2022-08-04T14:40:30.355Z,2.65
2022-08-04T14:45:35.788Z,2.70
2022-08-04T14:50:47.751Z,2.97
2022-08-04T14:55:50.794Z,3.00
2022-08-04T15:00:59.579Z,2.57
2022-08-04T15:06:07.919Z,3.87
2022-08-04T15:11:12.460Z,3.10
2022-08-04T15:16:26.545Z,2.67
2022-08-04T15:21:28.901Z,2.90
2022-08-04T15:26:35.329Z,2.80
2022-08-04T15:32:07.233Z,2.60
2022-08-04T15:37:03.629Z,3.23
2022-08-04T15:42:20.445Z,3.13
2022-08-04T15:47:22.424Z,3.28
2022-08-04T15:52:24.085Z,3.37
2022-08-04T15:57:51.202Z,3.30
2022-08-04T16:02:52.586Z,3.35
2022-08-04T16:07:56.670Z,2.85
2022-08-04T16:12:59.297Z,2.80
2022-08-04T16:18:00.745Z,2.40
2022-08-04T16:23:43.755Z,2.47
2022-08-04T16:28:42.573Z,2.33
2022-08-04T16:33:46.500Z,2.22
2022-08-04T16:39:01.995Z,2.40
2022-08-04T16:44:50.363Z,2.30
2022-08-04T16:49:49.410Z,2.60
2022-08-04T16:54:58.499Z,2.97
2022-08-04T16:59:59.831Z,2.47
2022-08-04T17:05:07.469Z,2.27
2022-08-04T17:10:09.425Z,3.60
2022-08-04T17:15:23.485Z,2.45
2022-08-04T17:20:27.628Z,2.33
2022-08-04T17:25:56.341Z,2.00
2022-08-04T17:30:59.846Z,2.10
2022-08-04T17:36:04.955Z,2.60
2022-08-04T17:41:19.551Z,2.67
2022-08-04T17:46:49.033Z,3.70
2022-08-04T17:52:04.986Z,2.47
2022-08-04T17:57:20.071Z,2.20
2022-08-04T18:02:22.841Z,2.30
2022-08-04T18:08:38.745Z,2.15
2022-08-04T18:13:06.054Z,2.13
2022-08-04T18:18:21.330Z,2.55
2022-08-04T18:23:31.411Z,2.42
2022-08-04T18:28:34.772Z,2.20
2022-08-04T18:33:40.707Z,2.40
2022-08-04T18:38:55.703Z,2.38
2022-08-04T18:43:59.856Z,2.67
2022-08-04T18:49:01.176Z,2.23
2022-08-04T18:54:02.554Z,2.28
2022-08-04T18:59:10.076Z,2.85
2022-08-04T19:04:33.724Z,2.20
2022-08-04T19:09:51.068Z,2.60
2022-08-04T19:14:58.175Z,2.72
2022-08-04T19:20:00.587Z,2.50
2022-08-04T19:25:01.878Z,2.37
2022-08-04T19:30:03.816Z,3.05
2022-08-04T19:35:06.442Z,2.47
2022-08-04T19:40:13.010Z,2.60
2022-08-04T19:45:15.511Z,2.70
2022-08-04T19:50:17.342Z,2.35
2022-08-04T19:55:19.448Z,2.70
2022-08-04T20:00:33.173Z,2.80
2022-08-04T20:05:53.234Z,2.67
2022-08-04T20:10:57.836Z,2.60
2022-08-04T20:15:59.468Z,3.30
2022-08-04T20:21:00.911Z,2.78
2022-08-04T20:26:02.517Z,2.80
2022-08-04T20:31:03.861Z,2.73
2022-08-04T20:36:06.547Z,3.08
2022-08-04T20:41:08.331Z,2.70
2022-08-04T20:46:18.641Z,2.63
2022-08-04T20:51:31.782Z,2.55
2022-08-04T20:56:35.061Z,2.90
2022-08-04T21:01:36.437Z,2.77
2022-08-04T21:06:37.759Z,2.93
2022-08-04T21:11:39.286Z,2.85
2022-08-04T21:16:55.405Z,3.03
2022-08-04T21:21:57.878Z,3.00
2022-08-04T21:27:01.798Z,2.70
2022-08-04T21:32:05.931Z,2.80
2022-08-04T21:37:11.388Z,2.90
2022-08-04T21:42:30.638Z,2.60
2022-08-04T21:47:45.802Z,2.97
2022-08-04T21:52:49.129Z,2.77
2022-08-04T21:57:51.488Z,3.03
2022-08-04T22:02:53.387Z,2.45
2022-08-04T22:07:55.131Z,2.92
2022-08-04T22:12:56.415Z,2.73
2022-08-04T22:18:00.274Z,2.85
2022-08-04T22:23:15.539Z,2.78
2022-08-04T22:28:18.665Z,3.13
2022-08-04T22:33:20.208Z,3.17
2022-08-04T22:38:41.804Z,2.88
2022-08-04T22:43:46.034Z,2.50
2022-08-04T22:48:56.862Z,3.00
2022-08-04T22:54:00.292Z,2.70
2022-08-04T22:59:03.047Z,2.47
2022-08-04T23:04:04.442Z,2.87
2022-08-04T23:09:05.771Z,2.20
2022-08-04T23:14:13.116Z,2.55
2022-08-04T23:19:15.589Z,2.43
2022-08-04T23:24:17.029Z,2.42
2022-08-04T23:29:20.232Z,2.67
2022-08-04T23:34:22.907Z,2.53
2022-08-04T23:39:24.271Z,2.70
2022-08-04T23:44:26.800Z,2.30
2022-08-04T23:49:44.846Z,2.63
2022-08-04T23:54:46.674Z,2.40
2022-08-04T23:59:54.258Z,2.70
